sensor_id;sensor_type;location;lat;lon;timestamp;temperature;humidity
66088;DHT22;52872;52.994;6.940;2022-12-11T00:00:50;1.80;99.90
66088;DHT22;52872;52.994;6.940;2022-12-11T00:03:17;1.80;99.90
66088;DHT22;52872;52.994;6.940;2022-12-11T00:05:44;1.70;99.90
66088;DHT22;52872;52.994;6.940;2022-12-11T00:08:12;1.80;99.90
66088;DHT22;52872;52.994;6.940;2022-12-11T00:10:46;1.80;99.90
66088;DHT22;52872;52.994;6.940;2022-12-11T00:13:14;1.80;99.90
66088;DHT22;52872;52.994;6.940;2022-12-11T00:15:40;1.80;99.90
66088;DHT22;52872;52.994;6.940;2022-12-11T00:18:13;1.70;99.90
66088;DHT22;52872;52.994;6.940;2022-12-11T00:20:41;1.80;99.90
66088;DHT22;52872;52.994;6.940;2022-12-11T00:23:08;1.70;99.90
66088;DHT22;52872;52.994;6.940;2022-12-11T00:25:44;1.80;99.90
66088;DHT22;52872;52.994;6.940;2022-12-11T00:28:13;1.80;99.90
66088;DHT22;52872;52.994;6.940;2022-12-11T00:30:41;1.80;99.90
66088;DHT22;52872;52.994;6.940;2022-12-11T00:33:10;1.80;99.90
66088;DHT22;52872;52.994;6.940;2022-12-11T00:35:42;1.80;99.90
66088;DHT22;52872;52.994;6.940;2022-12-11T00:38:18;1.80;99.90
66088;DHT22;52872;52.994;6.940;2022-12-11T00:40:45;1.80;99.90
66088;DHT22;52872;52.994;6.940;2022-12-11T00:43:12;1.80;99.90
66088;DHT22;52872;52.994;6.940;2022-12-11T00:45:45;1.80;99.90
66088;DHT22;52872;52.994;6.940;2022-12-11T00:48:13;1.90;99.90
66088;DHT22;52872;52.994;6.940;2022-12-11T00:50:40;1.90;99.90
66088;DHT22;52872;52.994;6.940;2022-12-11T00:53:08;1.90;99.90
66088;DHT22;52872;52.994;6.940;2022-12-11T00:55:39;1.90;99.90
66088;DHT22;52872;52.994;6.940;2022-12-11T00:58:07;2.00;99.90
66088;DHT22;52872;52.994;6.940;2022-12-11T01:00:34;1.90;99.90
66088;DHT22;52872;52.994;6.940;2022-12-11T01:03:01;1.90;99.90
66088;DHT22;52872;52.994;6.940;2022-12-11T01:05:29;1.90;99.90
66088;DHT22;52872;52.994;6.940;2022-12-11T01:07:56;1.90;99.90
66088;DHT22;52872;52.994;6.940;2022-12-11T01:10:23;1.90;99.90
66088;DHT22;52872;52.994;6.940;2022-12-11T01:12:52;2.00;99.90
66088;DHT22;52872;52.994;6.940;2022-12-11T01:15:21;2.00;99.90
66088;DHT22;52872;52.994;6.940;2022-12-11T01:17:49;2.00;99.90
66088;DHT22;52872;52.994;6.940;2022-12-11T01:20:18;2.00;99.90
66088;DHT22;52872;52.994;6.940;2022-12-11T01:22:46;2.10;99.90
66088;DHT22;52872;52.994;6.940;2022-12-11T01:25:13;2.10;99.90
66088;DHT22;52872;52.994;6.940;2022-12-11T01:27:40;2.10;99.90
66088;DHT22;52872;52.994;6.940;2022-12-11T01:30:08;2.10;99.90
66088;DHT22;52872;52.994;6.940;2022-12-11T01:32:36;2.10;99.90
66088;DHT22;52872;52.994;6.940;2022-12-11T01:35:06;2.10;99.90
66088;DHT22;52872;52.994;6.940;2022-12-11T01:37:33;2.10;99.90
66088;DHT22;52872;52.994;6.940;2022-12-11T01:40:02;2.00;99.90
66088;DHT22;52872;52.994;6.940;2022-12-11T01:42:29;2.00;99.90
66088;DHT22;52872;52.994;6.940;2022-12-11T01:48:03;2.10;99.90
66088;DHT22;52872;52.994;6.940;2022-12-11T01:50:35;2.10;99.90
66088;DHT22;52872;52.994;6.940;2022-12-11T01:53:07;2.10;99.90
66088;DHT22;52872;52.994;6.940;2022-12-11T01:55:37;2.10;99.90
66088;DHT22;52872;52.994;6.940;2022-12-11T01:58:05;2.10;99.90
66088;DHT22;52872;52.994;6.940;2022-12-11T02:00:32;2.10;99.90
66088;DHT22;52872;52.994;6.940;2022-12-11T02:02:59;2.20;99.90
66088;DHT22;52872;52.994;6.940;2022-12-11T02:05:26;2.20;99.90
66088;DHT22;52872;52.994;6.940;2022-12-11T02:07:55;2.20;99.90
66088;DHT22;52872;52.994;6.940;2022-12-11T02:10:30;2.20;99.90
66088;DHT22;52872;52.994;6.940;2022-12-11T02:13:09;2.20;99.90
66088;DHT22;52872;52.994;6.940;2022-12-11T02:15:50;2.30;99.90
66088;DHT22;52872;52.994;6.940;2022-12-11T02:18:38;2.30;99.90
66088;DHT22;52872;52.994;6.940;2022-12-11T02:21:34;2.30;99.90
66088;DHT22;52872;52.994;6.940;2022-12-11T02:27:10;2.30;99.90
66088;DHT22;52872;52.994;6.940;2022-12-11T02:29:52;2.20;99.90
66088;DHT22;52872;52.994;6.940;2022-12-11T02:35:21;2.40;99.90
66088;DHT22;52872;52.994;6.940;2022-12-11T02:37:58;2.40;99.90
66088;DHT22;52872;52.994;6.940;2022-12-11T02:40:29;2.40;99.90
66088;DHT22;52872;52.994;6.940;2022-12-11T02:43:01;2.40;99.90
66088;DHT22;52872;52.994;6.940;2022-12-11T02:45:28;2.40;99.90
66088;DHT22;52872;52.994;6.940;2022-12-11T02:47:58;2.40;99.90
66088;DHT22;52872;52.994;6.940;2022-12-11T02:50:26;2.40;99.90
66088;DHT22;52872;52.994;6.940;2022-12-11T02:52:56;2.40;99.90
66088;DHT22;52872;52.994;6.940;2022-12-11T02:55:24;2.40;99.90
66088;DHT22;52872;52.994;6.940;2022-12-11T02:58:04;2.40;99.90
66088;DHT22;52872;52.994;6.940;2022-12-11T03:00:32;2.40;99.90
66088;DHT22;52872;52.994;6.940;2022-12-11T03:03:00;2.40;99.90
66088;DHT22;52872;52.994;6.940;2022-12-11T03:05:28;2.40;99.90
66088;DHT22;52872;52.994;6.940;2022-12-11T03:07:56;2.50;99.90
66088;DHT22;52872;52.994;6.940;2022-12-11T03:10:24;2.50;99.90
66088;DHT22;52872;52.994;6.940;2022-12-11T03:12:52;2.40;99.90
66088;DHT22;52872;52.994;6.940;2022-12-11T03:15:26;2.50;99.90
66088;DHT22;52872;52.994;6.940;2022-12-11T03:18:09;2.50;99.90
66088;DHT22;52872;52.994;6.940;2022-12-11T03:20:44;2.50;99.90
66088;DHT22;52872;52.994;6.940;2022-12-11T03:23:46;2.50;99.90
66088;DHT22;52872;52.994;6.940;2022-12-11T03:26:16;2.50;99.90
66088;DHT22;52872;52.994;6.940;2022-12-11T03:29:20;2.50;99.90
66088;DHT22;52872;52.994;6.940;2022-12-11T03:31:56;2.50;99.90
66088;DHT22;52872;52.994;6.940;2022-12-11T03:34:30;2.50;99.90
66088;DHT22;52872;52.994;6.940;2022-12-11T03:36:59;2.60;99.90
66088;DHT22;52872;52.994;6.940;2022-12-11T03:39:31;2.60;99.90
66088;DHT22;52872;52.994;6.940;2022-12-11T03:42:01;2.60;99.90
66088;DHT22;52872;52.994;6.940;2022-12-11T03:44:29;2.60;99.90
66088;DHT22;52872;52.994;6.940;2022-12-11T03:46:59;2.60;99.90
66088;DHT22;52872;52.994;6.940;2022-12-11T03:49:32;2.60;99.90
66088;DHT22;52872;52.994;6.940;2022-12-11T03:52:02;2.60;99.90
66088;DHT22;52872;52.994;6.940;2022-12-11T03:54:30;2.60;99.90
66088;DHT22;52872;52.994;6.940;2022-12-11T03:56:58;2.60;99.90
66088;DHT22;52872;52.994;6.940;2022-12-11T03:59:27;2.60;99.90
66088;DHT22;52872;52.994;6.940;2022-12-11T04:01:54;2.60;99.90
66088;DHT22;52872;52.994;6.940;2022-12-11T04:04:21;2.50;99.90
66088;DHT22;52872;52.994;6.940;2022-12-11T04:06:48;2.50;99.90
66088;DHT22;52872;52.994;6.940;2022-12-11T04:09:15;2.40;99.90
66088;DHT22;52872;52.994;6.940;2022-12-11T04:11:42;2.50;99.90
66088;DHT22;52872;52.994;6.940;2022-12-11T04:14:12;2.50;99.90
66088;DHT22;52872;52.994;6.940;2022-12-11T04:16:59;2.50;99.90
66088;DHT22;52872;52.994;6.940;2022-12-11T04:19:26;2.50;99.90
66088;DHT22;52872;52.994;6.940;2022-12-11T04:22:14;2.50;99.90
66088;DHT22;52872;52.994;6.940;2022-12-11T04:25:02;2.50;99.90
66088;DHT22;52872;52.994;6.940;2022-12-11T04:27:30;2.50;99.90
66088;DHT22;52872;52.994;6.940;2022-12-11T04:30:18;2.50;99.90
66088;DHT22;52872;52.994;6.940;2022-12-11T04:32:45;2.50;99.90
66088;DHT22;52872;52.994;6.940;2022-12-11T04:35:13;2.50;99.90
66088;DHT22;52872;52.994;6.940;2022-12-11T04:37:40;2.60;99.90
66088;DHT22;52872;52.994;6.940;2022-12-11T04:40:10;2.60;99.90
66088;DHT22;52872;52.994;6.940;2022-12-11T04:42:37;2.60;99.90
66088;DHT22;52872;52.994;6.940;2022-12-11T04:45:05;2.60;99.90
66088;DHT22;52872;52.994;6.940;2022-12-11T04:47:34;2.60;99.90
66088;DHT22;52872;52.994;6.940;2022-12-11T04:50:01;2.60;99.90
66088;DHT22;52872;52.994;6.940;2022-12-11T04:52:28;2.50;99.90
66088;DHT22;52872;52.994;6.940;2022-12-11T04:54:55;2.50;99.90
66088;DHT22;52872;52.994;6.940;2022-12-11T04:57:22;2.50;99.90
66088;DHT22;52872;52.994;6.940;2022-12-11T04:59:49;2.50;99.90
66088;DHT22;52872;52.994;6.940;2022-12-11T05:02:16;2.50;99.90
66088;DHT22;52872;52.994;6.940;2022-12-11T05:04:43;2.60;99.90
66088;DHT22;52872;52.994;6.940;2022-12-11T05:07:10;2.60;99.90
66088;DHT22;52872;52.994;6.940;2022-12-11T05:09:37;2.60;99.90
66088;DHT22;52872;52.994;6.940;2022-12-11T05:12:04;2.60;99.90
66088;DHT22;52872;52.994;6.940;2022-12-11T05:14:31;2.50;99.90
66088;DHT22;52872;52.994;6.940;2022-12-11T05:16:58;2.60;99.90
66088;DHT22;52872;52.994;6.940;2022-12-11T05:19:25;2.60;99.90
66088;DHT22;52872;52.994;6.940;2022-12-11T05:21:52;2.60;99.90
66088;DHT22;52872;52.994;6.940;2022-12-11T05:24:20;2.60;99.90
66088;DHT22;52872;52.994;6.940;2022-12-11T05:26:47;2.50;99.90
66088;DHT22;52872;52.994;6.940;2022-12-11T05:29:13;2.60;99.90
66088;DHT22;52872;52.994;6.940;2022-12-11T05:31:40;2.50;99.90
66088;DHT22;52872;52.994;6.940;2022-12-11T05:34:07;2.60;99.90
66088;DHT22;52872;52.994;6.940;2022-12-11T05:36:34;2.60;99.90
66088;DHT22;52872;52.994;6.940;2022-12-11T05:39:03;2.50;99.90
66088;DHT22;52872;52.994;6.940;2022-12-11T05:41:30;2.60;99.90
66088;DHT22;52872;52.994;6.940;2022-12-11T05:43:58;2.60;99.90
66088;DHT22;52872;52.994;6.940;2022-12-11T05:46:27;2.60;99.90
66088;DHT22;52872;52.994;6.940;2022-12-11T05:48:57;2.60;99.90
66088;DHT22;52872;52.994;6.940;2022-12-11T05:51:25;2.60;99.90
66088;DHT22;52872;52.994;6.940;2022-12-11T05:53:53;2.60;99.90
66088;DHT22;52872;52.994;6.940;2022-12-11T05:56:29;2.60;99.90
66088;DHT22;52872;52.994;6.940;2022-12-11T05:58:57;2.60;99.90
66088;DHT22;52872;52.994;6.940;2022-12-11T06:01:27;2.60;99.90
66088;DHT22;52872;52.994;6.940;2022-12-11T06:03:55;2.60;99.90
66088;DHT22;52872;52.994;6.940;2022-12-11T06:06:23;2.50;99.90
66088;DHT22;52872;52.994;6.940;2022-12-11T06:08:52;2.50;99.90
66088;DHT22;52872;52.994;6.940;2022-12-11T06:11:20;2.60;99.90
66088;DHT22;52872;52.994;6.940;2022-12-11T06:13:50;2.60;99.90
66088;DHT22;52872;52.994;6.940;2022-12-11T06:16:18;2.60;99.90
66088;DHT22;52872;52.994;6.940;2022-12-11T06:18:46;2.50;99.90
66088;DHT22;52872;52.994;6.940;2022-12-11T06:21:13;2.60;99.90
66088;DHT22;52872;52.994;6.940;2022-12-11T06:23:41;2.60;99.90
66088;DHT22;52872;52.994;6.940;2022-12-11T06:26:09;2.60;99.90
66088;DHT22;52872;52.994;6.940;2022-12-11T06:28:37;2.50;99.90
66088;DHT22;52872;52.994;6.940;2022-12-11T06:31:04;2.50;99.90
66088;DHT22;52872;52.994;6.940;2022-12-11T06:33:31;2.50;99.90
66088;DHT22;52872;52.994;6.940;2022-12-11T06:36:03;2.50;99.90
66088;DHT22;52872;52.994;6.940;2022-12-11T06:38:31;2.60;99.90
66088;DHT22;52872;52.994;6.940;2022-12-11T06:41:00;2.60;99.90
66088;DHT22;52872;52.994;6.940;2022-12-11T06:43:28;2.60;99.90
66088;DHT22;52872;52.994;6.940;2022-12-11T06:45:55;2.60;99.90
66088;DHT22;52872;52.994;6.940;2022-12-11T06:48:27;2.60;99.90
66088;DHT22;52872;52.994;6.940;2022-12-11T06:50:54;2.60;99.90
66088;DHT22;52872;52.994;6.940;2022-12-11T06:53:21;2.60;99.90
66088;DHT22;52872;52.994;6.940;2022-12-11T06:55:48;2.70;99.90
66088;DHT22;52872;52.994;6.940;2022-12-11T06:58:15;2.70;99.90
66088;DHT22;52872;52.994;6.940;2022-12-11T07:00:42;2.70;99.90
66088;DHT22;52872;52.994;6.940;2022-12-11T07:03:09;2.70;99.90
66088;DHT22;52872;52.994;6.940;2022-12-11T07:05:37;2.70;99.90
66088;DHT22;52872;52.994;6.940;2022-12-11T07:08:04;2.70;99.90
66088;DHT22;52872;52.994;6.940;2022-12-11T07:10:33;2.70;99.90
66088;DHT22;52872;52.994;6.940;2022-12-11T07:12:59;2.70;99.90
66088;DHT22;52872;52.994;6.940;2022-12-11T07:15:27;2.70;99.90
66088;DHT22;52872;52.994;6.940;2022-12-11T07:17:54;2.70;99.90
66088;DHT22;52872;52.994;6.940;2022-12-11T07:20:21;2.70;99.90
66088;DHT22;52872;52.994;6.940;2022-12-11T07:22:48;2.70;99.90
66088;DHT22;52872;52.994;6.940;2022-12-11T07:25:15;2.70;99.90
66088;DHT22;52872;52.994;6.940;2022-12-11T07:27:42;2.70;99.90
66088;DHT22;52872;52.994;6.940;2022-12-11T07:30:10;2.70;99.90
66088;DHT22;52872;52.994;6.940;2022-12-11T07:32:37;2.80;99.90
66088;DHT22;52872;52.994;6.940;2022-12-11T07:35:04;2.80;99.90
66088;DHT22;52872;52.994;6.940;2022-12-11T07:37:31;2.80;99.90
66088;DHT22;52872;52.994;6.940;2022-12-11T07:39:58;2.80;99.90
66088;DHT22;52872;52.994;6.940;2022-12-11T07:42:25;2.80;99.90
66088;DHT22;52872;52.994;6.940;2022-12-11T07:44:52;2.80;99.90
66088;DHT22;52872;52.994;6.940;2022-12-11T07:47:19;2.80;99.90
66088;DHT22;52872;52.994;6.940;2022-12-11T07:49:47;2.70;99.90
66088;DHT22;52872;52.994;6.940;2022-12-11T07:52:14;2.80;99.90
66088;DHT22;52872;52.994;6.940;2022-12-11T07:54:40;2.80;99.90
66088;DHT22;52872;52.994;6.940;2022-12-11T07:57:07;2.80;99.90
66088;DHT22;52872;52.994;6.940;2022-12-11T07:59:39;2.80;99.90
66088;DHT22;52872;52.994;6.940;2022-12-11T08:02:09;2.80;99.90
66088;DHT22;52872;52.994;6.940;2022-12-11T08:04:37;2.80;99.90
66088;DHT22;52872;52.994;6.940;2022-12-11T08:07:04;2.80;99.90
66088;DHT22;52872;52.994;6.940;2022-12-11T08:09:31;2.80;99.90
66088;DHT22;52872;52.994;6.940;2022-12-11T08:11:58;2.80;99.90
66088;DHT22;52872;52.994;6.940;2022-12-11T08:14:25;2.80;99.90
66088;DHT22;52872;52.994;6.940;2022-12-11T08:16:52;2.80;99.90
66088;DHT22;52872;52.994;6.940;2022-12-11T08:19:19;2.70;99.90
66088;DHT22;52872;52.994;6.940;2022-12-11T08:21:46;2.70;99.90
66088;DHT22;52872;52.994;6.940;2022-12-11T08:24:13;2.70;99.90
66088;DHT22;52872;52.994;6.940;2022-12-11T08:26:46;2.70;99.90
66088;DHT22;52872;52.994;6.940;2022-12-11T08:29:14;2.70;99.90
66088;DHT22;52872;52.994;6.940;2022-12-11T08:31:41;2.70;99.90
66088;DHT22;52872;52.994;6.940;2022-12-11T08:34:08;2.60;99.90
66088;DHT22;52872;52.994;6.940;2022-12-11T08:36:35;2.60;99.90
66088;DHT22;52872;52.994;6.940;2022-12-11T08:39:02;2.60;99.90
66088;DHT22;52872;52.994;6.940;2022-12-11T08:41:29;2.60;99.90
66088;DHT22;52872;52.994;6.940;2022-12-11T08:43:57;2.60;99.90
66088;DHT22;52872;52.994;6.940;2022-12-11T08:46:27;2.60;99.90
66088;DHT22;52872;52.994;6.940;2022-12-11T08:48:55;2.60;99.90
66088;DHT22;52872;52.994;6.940;2022-12-11T08:51:25;2.60;99.90
66088;DHT22;52872;52.994;6.940;2022-12-11T08:53:59;2.70;99.90
66088;DHT22;52872;52.994;6.940;2022-12-11T08:56:27;2.70;99.90
66088;DHT22;52872;52.994;6.940;2022-12-11T08:58:54;2.70;99.90
66088;DHT22;52872;52.994;6.940;2022-12-11T09:01:24;2.60;99.90
66088;DHT22;52872;52.994;6.940;2022-12-11T09:03:52;2.70;99.90
66088;DHT22;52872;52.994;6.940;2022-12-11T09:06:21;2.70;99.90
66088;DHT22;52872;52.994;6.940;2022-12-11T09:08:50;2.70;99.90
66088;DHT22;52872;52.994;6.940;2022-12-11T09:11:22;2.70;99.90
66088;DHT22;52872;52.994;6.940;2022-12-11T09:13:49;2.70;99.90
66088;DHT22;52872;52.994;6.940;2022-12-11T09:16:18;2.70;99.90
66088;DHT22;52872;52.994;6.940;2022-12-11T09:18:47;2.70;99.90
66088;DHT22;52872;52.994;6.940;2022-12-11T09:21:17;2.70;99.90
66088;DHT22;52872;52.994;6.940;2022-12-11T09:23:46;2.70;99.90
66088;DHT22;52872;52.994;6.940;2022-12-11T09:26:16;2.70;99.90
66088;DHT22;52872;52.994;6.940;2022-12-11T09:28:43;2.70;99.90
66088;DHT22;52872;52.994;6.940;2022-12-11T09:31:18;2.80;99.90
66088;DHT22;52872;52.994;6.940;2022-12-11T09:33:45;2.80;99.90
66088;DHT22;52872;52.994;6.940;2022-12-11T09:36:12;2.80;99.90
66088;DHT22;52872;52.994;6.940;2022-12-11T09:38:39;2.80;99.90
66088;DHT22;52872;52.994;6.940;2022-12-11T09:46:31;2.90;99.90
66088;DHT22;52872;52.994;6.940;2022-12-11T09:49:02;2.90;99.90
66088;DHT22;52872;52.994;6.940;2022-12-11T09:51:39;2.90;99.90
66088;DHT22;52872;52.994;6.940;2022-12-11T09:54:10;3.00;99.90
66088;DHT22;52872;52.994;6.940;2022-12-11T09:56:51;3.00;99.90
66088;DHT22;52872;52.994;6.940;2022-12-11T09:59:24;3.10;99.90
66088;DHT22;52872;52.994;6.940;2022-12-11T10:16:11;3.10;99.90
66088;DHT22;52872;52.994;6.940;2022-12-11T10:18:30;3.20;99.90
66088;DHT22;52872;52.994;6.940;2022-12-11T10:21:00;3.20;99.90
66088;DHT22;52872;52.994;6.940;2022-12-11T10:23:35;3.20;99.90
66088;DHT22;52872;52.994;6.940;2022-12-11T10:26:18;3.30;99.90
66088;DHT22;52872;52.994;6.940;2022-12-11T10:28:46;3.30;99.90
66088;DHT22;52872;52.994;6.940;2022-12-11T10:31:18;3.30;99.90
66088;DHT22;52872;52.994;6.940;2022-12-11T10:36:24;3.40;99.90
66088;DHT22;52872;52.994;6.940;2022-12-11T10:38:52;3.40;99.90
66088;DHT22;52872;52.994;6.940;2022-12-11T10:41:22;3.40;99.90
66088;DHT22;52872;52.994;6.940;2022-12-11T10:43:51;3.50;99.90
66088;DHT22;52872;52.994;6.940;2022-12-11T10:46:21;3.50;99.90
66088;DHT22;52872;52.994;6.940;2022-12-11T10:48:53;3.50;99.90
66088;DHT22;52872;52.994;6.940;2022-12-11T10:51:41;3.40;99.90
66088;DHT22;52872;52.994;6.940;2022-12-11T10:54:24;3.50;99.90
66088;DHT22;52872;52.994;6.940;2022-12-11T10:56:55;3.40;99.90
66088;DHT22;52872;52.994;6.940;2022-12-11T10:59:47;3.40;99.90
66088;DHT22;52872;52.994;6.940;2022-12-11T11:02:30;3.40;99.90
66088;DHT22;52872;52.994;6.940;2022-12-11T11:04:59;3.30;99.90
66088;DHT22;52872;52.994;6.940;2022-12-11T11:07:29;3.30;99.90
66088;DHT22;52872;52.994;6.940;2022-12-11T11:10:13;3.30;99.90
66088;DHT22;52872;52.994;6.940;2022-12-11T11:12:44;3.20;99.90
66088;DHT22;52872;52.994;6.940;2022-12-11T11:15:23;3.20;99.90
66088;DHT22;52872;52.994;6.940;2022-12-11T11:17:56;3.30;99.90
66088;DHT22;52872;52.994;6.940;2022-12-11T11:20:28;3.20;99.90
66088;DHT22;52872;52.994;6.940;2022-12-11T11:23:12;3.20;99.90
66088;DHT22;52872;52.994;6.940;2022-12-11T11:25:49;3.20;99.90
66088;DHT22;52872;52.994;6.940;2022-12-11T11:28:38;3.30;99.90
66088;DHT22;52872;52.994;6.940;2022-12-11T11:31:11;3.40;99.90
66088;DHT22;52872;52.994;6.940;2022-12-11T11:33:54;3.30;99.90
66088;DHT22;52872;52.994;6.940;2022-12-11T11:36:25;3.40;99.90
66088;DHT22;52872;52.994;6.940;2022-12-11T11:41:50;3.30;99.90
66088;DHT22;52872;52.994;6.940;2022-12-11T11:44:32;3.40;99.90
66088;DHT22;52872;52.994;6.940;2022-12-11T11:47:12;3.40;99.90
66088;DHT22;52872;52.994;6.940;2022-12-11T11:52:18;3.40;99.90
66088;DHT22;52872;52.994;6.940;2022-12-11T11:57:25;3.40;99.90
66088;DHT22;52872;52.994;6.940;2022-12-11T12:00:03;3.40;99.90
66088;DHT22;52872;52.994;6.940;2022-12-11T12:02:39;3.40;99.90
66088;DHT22;52872;52.994;6.940;2022-12-11T12:05:22;3.40;99.90
66088;DHT22;52872;52.994;6.940;2022-12-11T12:10:54;3.40;99.90
66088;DHT22;52872;52.994;6.940;2022-12-11T12:14:00;3.30;99.90
66088;DHT22;52872;52.994;6.940;2022-12-11T12:21:54;3.40;99.90
66088;DHT22;52872;52.994;6.940;2022-12-11T12:24:26;3.50;99.90
66088;DHT22;52872;52.994;6.940;2022-12-11T12:27:00;3.50;99.90
66088;DHT22;52872;52.994;6.940;2022-12-11T12:32:22;3.50;99.90
66088;DHT22;52872;52.994;6.940;2022-12-11T12:37:53;3.50;99.90
66088;DHT22;52872;52.994;6.940;2022-12-11T12:45:59;3.60;99.90
66088;DHT22;52872;52.994;6.940;2022-12-11T12:48:32;3.50;99.90
66088;DHT22;52872;52.994;6.940;2022-12-11T12:51:00;3.60;99.90
66088;DHT22;52872;52.994;6.940;2022-12-11T12:53:30;3.50;99.90
66088;DHT22;52872;52.994;6.940;2022-12-11T12:56:00;3.50;99.90
66088;DHT22;52872;52.994;6.940;2022-12-11T13:01:07;3.50;99.90
66088;DHT22;52872;52.994;6.940;2022-12-11T13:03:49;3.50;99.90
66088;DHT22;52872;52.994;6.940;2022-12-11T13:06:27;3.50;99.90
66088;DHT22;52872;52.994;6.940;2022-12-11T13:08:55;3.50;99.90
66088;DHT22;52872;52.994;6.940;2022-12-11T13:11:31;3.50;99.90
66088;DHT22;52872;52.994;6.940;2022-12-11T13:14:21;3.50;99.90
66088;DHT22;52872;52.994;6.940;2022-12-11T13:16:51;3.50;99.90
66088;DHT22;52872;52.994;6.940;2022-12-11T13:24:32;3.60;99.90
66088;DHT22;52872;52.994;6.940;2022-12-11T13:27:10;3.50;99.90
66088;DHT22;52872;52.994;6.940;2022-12-11T13:29:47;3.60;99.90
66088;DHT22;52872;52.994;6.940;2022-12-11T13:34:51;3.60;99.90
66088;DHT22;52872;52.994;6.940;2022-12-11T13:37:27;3.60;99.90
66088;DHT22;52872;52.994;6.940;2022-12-11T13:39:55;3.60;99.90
66088;DHT22;52872;52.994;6.940;2022-12-11T13:42:56;3.50;99.90
66088;DHT22;52872;52.994;6.940;2022-12-11T13:45:38;3.60;99.90
66088;DHT22;52872;52.994;6.940;2022-12-11T13:50:44;3.60;99.90
66088;DHT22;52872;52.994;6.940;2022-12-11T13:53:16;3.50;99.90
66088;DHT22;52872;52.994;6.940;2022-12-11T13:55:44;3.50;99.90
66088;DHT22;52872;52.994;6.940;2022-12-11T13:58:19;3.50;99.90
66088;DHT22;52872;52.994;6.940;2022-12-11T14:03:34;3.50;99.90
66088;DHT22;52872;52.994;6.940;2022-12-11T14:06:01;3.40;99.90
66088;DHT22;52872;52.994;6.940;2022-12-11T14:08:36;3.50;99.90
66088;DHT22;52872;52.994;6.940;2022-12-11T14:11:05;3.50;99.90
66088;DHT22;52872;52.994;6.940;2022-12-11T14:13:38;3.50;99.90
66088;DHT22;52872;52.994;6.940;2022-12-11T14:16:06;3.40;99.90
66088;DHT22;52872;52.994;6.940;2022-12-11T14:18:35;3.40;99.90
66088;DHT22;52872;52.994;6.940;2022-12-11T14:21:04;3.40;99.90
66088;DHT22;52872;52.994;6.940;2022-12-11T14:23:34;3.40;99.90
66088;DHT22;52872;52.994;6.940;2022-12-11T14:26:13;3.40;99.90
66088;DHT22;52872;52.994;6.940;2022-12-11T14:28:41;3.40;99.90
66088;DHT22;52872;52.994;6.940;2022-12-11T14:31:13;3.40;99.90
66088;DHT22;52872;52.994;6.940;2022-12-11T14:33:50;3.40;99.90
66088;DHT22;52872;52.994;6.940;2022-12-11T14:36:19;3.40;99.90
66088;DHT22;52872;52.994;6.940;2022-12-11T14:38:49;3.30;99.90
66088;DHT22;52872;52.994;6.940;2022-12-11T14:41:22;3.30;99.90
66088;DHT22;52872;52.994;6.940;2022-12-11T14:43:53;3.30;99.90
66088;DHT22;52872;52.994;6.940;2022-12-11T14:46:28;3.30;99.90
66088;DHT22;52872;52.994;6.940;2022-12-11T14:49:02;3.40;99.90
66088;DHT22;52872;52.994;6.940;2022-12-11T14:51:35;3.40;99.90
66088;DHT22;52872;52.994;6.940;2022-12-11T14:54:05;3.40;99.90
66088;DHT22;52872;52.994;6.940;2022-12-11T14:56:33;3.40;99.90
66088;DHT22;52872;52.994;6.940;2022-12-11T14:59:04;3.50;99.90
66088;DHT22;52872;52.994;6.940;2022-12-11T15:01:34;3.50;99.90
66088;DHT22;52872;52.994;6.940;2022-12-11T15:04:06;3.50;99.90
66088;DHT22;52872;52.994;6.940;2022-12-11T15:06:42;3.50;99.90
66088;DHT22;52872;52.994;6.940;2022-12-11T15:12:14;3.50;99.90
66088;DHT22;52872;52.994;6.940;2022-12-11T15:17:16;3.50;99.90
66088;DHT22;52872;52.994;6.940;2022-12-11T15:19:49;3.50;99.90
66088;DHT22;52872;52.994;6.940;2022-12-11T15:22:19;3.50;99.90
66088;DHT22;52872;52.994;6.940;2022-12-11T15:24:50;3.50;99.90
66088;DHT22;52872;52.994;6.940;2022-12-11T15:29:56;3.50;99.90
66088;DHT22;52872;52.994;6.940;2022-12-11T15:32:23;3.40;99.90
66088;DHT22;52872;52.994;6.940;2022-12-11T15:34:58;3.50;99.90
66088;DHT22;52872;52.994;6.940;2022-12-11T15:37:28;3.50;99.90
66088;DHT22;52872;52.994;6.940;2022-12-11T15:39:57;3.50;99.90
66088;DHT22;52872;52.994;6.940;2022-12-11T15:42:39;3.50;99.90
66088;DHT22;52872;52.994;6.940;2022-12-11T15:45:14;3.50;99.90
66088;DHT22;52872;52.994;6.940;2022-12-11T15:47:42;3.40;99.90
66088;DHT22;52872;52.994;6.940;2022-12-11T15:52:47;3.40;99.90
66088;DHT22;52872;52.994;6.940;2022-12-11T15:55:15;3.40;99.90
66088;DHT22;52872;52.994;6.940;2022-12-11T15:57:54;3.40;99.90
66088;DHT22;52872;52.994;6.940;2022-12-11T16:00:23;3.40;99.90
66088;DHT22;52872;52.994;6.940;2022-12-11T16:02:50;3.40;99.90
66088;DHT22;52872;52.994;6.940;2022-12-11T16:05:17;3.30;99.90
66088;DHT22;52872;52.994;6.940;2022-12-11T16:07:45;3.30;99.90
66088;DHT22;52872;52.994;6.940;2022-12-11T16:10:14;3.30;99.90
66088;DHT22;52872;52.994;6.940;2022-12-11T16:12:42;3.40;99.90
66088;DHT22;52872;52.994;6.940;2022-12-11T16:15:10;3.40;99.90
66088;DHT22;52872;52.994;6.940;2022-12-11T16:17:41;3.40;99.90
66088;DHT22;52872;52.994;6.940;2022-12-11T16:20:09;3.40;99.90
66088;DHT22;52872;52.994;6.940;2022-12-11T16:22:37;3.40;99.90
66088;DHT22;52872;52.994;6.940;2022-12-11T16:25:04;3.40;99.90
66088;DHT22;52872;52.994;6.940;2022-12-11T16:27:31;3.40;99.90
66088;DHT22;52872;52.994;6.940;2022-12-11T16:29:58;3.40;99.90
66088;DHT22;52872;52.994;6.940;2022-12-11T16:32:25;3.50;99.90
66088;DHT22;52872;52.994;6.940;2022-12-11T16:34:52;3.40;99.90
66088;DHT22;52872;52.994;6.940;2022-12-11T16:37:20;3.50;99.90
66088;DHT22;52872;52.994;6.940;2022-12-11T16:39:46;3.40;99.90
66088;DHT22;52872;52.994;6.940;2022-12-11T16:42:14;3.40;99.90
66088;DHT22;52872;52.994;6.940;2022-12-11T16:44:41;3.40;99.90
66088;DHT22;52872;52.994;6.940;2022-12-11T16:47:10;3.40;99.90
66088;DHT22;52872;52.994;6.940;2022-12-11T16:49:37;3.30;99.90
66088;DHT22;52872;52.994;6.940;2022-12-11T16:52:03;3.30;99.90
66088;DHT22;52872;52.994;6.940;2022-12-11T16:54:30;3.30;99.90
66088;DHT22;52872;52.994;6.940;2022-12-11T16:56:57;3.20;99.90
66088;DHT22;52872;52.994;6.940;2022-12-11T16:59:24;3.20;99.90
66088;DHT22;52872;52.994;6.940;2022-12-11T17:01:51;3.20;99.90
66088;DHT22;52872;52.994;6.940;2022-12-11T17:04:18;3.20;99.90
66088;DHT22;52872;52.994;6.940;2022-12-11T17:06:45;3.20;99.90
66088;DHT22;52872;52.994;6.940;2022-12-11T17:09:12;3.10;99.90
66088;DHT22;52872;52.994;6.940;2022-12-11T17:11:39;3.10;99.90
66088;DHT22;52872;52.994;6.940;2022-12-11T17:14:09;3.10;99.90
66088;DHT22;52872;52.994;6.940;2022-12-11T17:16:38;3.00;99.90
66088;DHT22;52872;52.994;6.940;2022-12-11T17:19:05;3.00;99.90
66088;DHT22;52872;52.994;6.940;2022-12-11T17:21:33;2.90;99.90
66088;DHT22;52872;52.994;6.940;2022-12-11T17:23:59;3.00;99.90
66088;DHT22;52872;52.994;6.940;2022-12-11T17:26:27;3.00;99.90
66088;DHT22;52872;52.994;6.940;2022-12-11T17:28:55;3.00;99.90
66088;DHT22;52872;52.994;6.940;2022-12-11T17:31:23;3.00;99.90